Antigonish, Canada
Current Conditions -  °F | °C
As of 1:00 AM on Tuesday 23 Dec 2014 (Local Time) from CYPD Reporting Station
Overcast Overcast  
Wind Chill: 27°   Ceiling: 1700
Heat Index: 27°   Visibility: 9mi
Dew Point: 21°   Wind: 3mph
Humidity: 80%   Direction: 140°SE
Pressure: 30.47"   Gusts: NA
Location:  45.62°N, 61.99°W
Report Text: CYPD 230500Z AUTO 14003KT 9SM OVC017 M03/M06 A3047 RMK SLP323
Loading
Personal Weather Stations






























Interactive Weather Map New forecast layout! Learn more

10-Day Weather Forecast

Advertisements
Track Severe Weather on mobile